Low Rocky Point, Australia
Current Conditions -  °F | °C
As of 9:00 AM on Monday 26 Jan 2015 (Local Time) from YMHB Reporting Station
Scattered Clouds Scattered Clouds  
Wind Chill: 59°   Ceiling: Unl
Heat Index: 59°   Visibility: 6mi
Dew Point: 39°   Wind: 18mph
Humidity: 48%   Direction: 310°NW
Pressure: 29.88"   Gusts: NA
Location:  42.76°S, 145.54°E
Report Text: YMHB 252200Z 31016KT 9999 FEW040 SCT055 15/04 Q1012
Loading
Personal Weather Stations






























Interactive Weather Map New forecast layout! Learn more

10-Day Weather Forecast

Advertisements
Track Severe Weather on mobile